Time;durP1;ratioP1;P1;durP2;ratioP2;P2;SDS_P1;SDS_P2;PMS_P1;PMS_P2;Temp;Humidity;BMP_temperature;BMP_pressure;BME280_temperature;BME280_humidity;BME280_pressure;Samples;Min_cycle;Max_cycle;Signal;HPM_P1;HPM_P2
2021/05/14 00:02:00;;;;;;;8.13;3.98;;;;;;;14.29;53.76;98762.75;1762285;79;33295;-73
2021/05/14 00:04:26;;;;;;;7.03;3.55;;;;;;;14.44;53.68;98780.98;1762832;80;25601;-73
2021/05/14 00:06:52;;;;;;;6.75;3.67;;;;;;;14.47;53.59;98781.56;1763433;79;34784;-73
2021/05/14 00:09:18;;;;;;;6.70;3.70;;;;;;;14.47;53.77;98781.56;1762309;79;32418;-73
2021/05/14 00:11:45;;;;;;;5.75;3.35;;;;;;;14.38;53.73;98781.91;1763429;79;25643;-73
2021/05/14 00:14:12;;;;;;;11.00;3.98;;;;;;;14.36;54.05;98789.73;1762898;79;25554;-73
2021/05/14 00:16:39;;;;;;;9.05;3.47;;;;;;;14.36;54.22;98784.48;1754961;80;25606;-73
2021/05/14 00:19:05;;;;;;;5.83;3.90;;;;;;;14.35;54.02;98782.86;1755968;80;25533;-74
2021/05/14 00:21:32;;;;;;;7.97;3.40;;;;;;;14.35;54.07;98781.06;1731534;81;32712;-73
2021/05/14 00:23:59;;;;;;;4.92;3.70;;;;;;;14.24;54.12;98777.91;1767320;79;25752;-73
2021/05/14 00:26:25;;;;;;;7.40;3.20;;;;;;;14.06;54.21;98788.00;1759067;80;25633;-73
2021/05/14 00:28:51;;;;;;;6.42;3.60;;;;;;;14.03;54.76;98779.25;1757876;80;25590;-73
2021/05/14 00:31:18;;;;;;;6.00;3.47;;;;;;;14.07;55.00;98776.97;1757436;80;25200;-73
2021/05/14 00:33:44;;;;;;;6.53;3.40;;;;;;;14.05;54.85;98778.52;1758532;80;25558;-73
2021/05/14 00:36:10;;;;;;;7.15;3.85;;;;;;;14.07;55.07;98775.13;1758874;80;26177;-72
2021/05/14 00:38:37;;;;;;;9.28;3.77;;;;;;;14.10;55.09;98773.88;1758509;80;25130;-74
2021/05/14 00:41:04;;;;;;;7.70;3.87;;;;;;;14.07;54.94;98774.34;1757499;80;25694;-73
2021/05/14 00:43:31;;;;;;;11.68;3.58;;;;;;;14.08;55.17;98769.39;1759511;80;26267;-73
2021/05/14 00:45:58;;;;;;;6.60;4.20;;;;;;;14.13;55.18;98773.42;1756524;80;25558;-73
2021/05/14 00:48:24;;;;;;;7.35;3.83;;;;;;;14.17;55.35;98773.27;1703581;81;25600;-73
2021/05/14 00:50:50;;;;;;;6.10;3.60;;;;;;;14.17;55.45;98773.27;1767183;79;32851;-73
2021/05/14 00:53:15;;;;;;;6.08;3.85;;;;;;;14.15;55.45;98772.69;1766900;79;32476;-73
2021/05/14 00:55:41;;;;;;;7.58;3.80;;;;;;;14.11;55.53;98777.61;1763903;79;34578;-73
2021/05/14 00:58:08;;;;;;;7.17;4.10;;;;;;;14.11;55.46;98776.81;1764952;79;25602;-73
2021/05/14 01:00:34;;;;;;;8.80;4.17;;;;;;;14.12;55.69;98779.72;1762775;79;26307;-73
2021/05/14 01:03:00;;;;;;;5.95;4.00;;;;;;;14.03;55.71;98782.40;1763302;79;25195;-73
2021/05/14 01:05:26;;;;;;;12.00;4.47;;;;;;;13.98;55.82;98785.17;1764446;79;31235;-74
2021/05/14 01:07:54;;;;;;;8.13;3.65;;;;;;;13.96;55.93;98780.66;1763332;79;26365;-73
2021/05/14 01:10:21;;;;;;;6.40;3.80;;;;;;;13.88;56.07;98780.19;1762318;79;25162;-73
2021/05/14 01:12:46;;;;;;;13.05;4.30;;;;;;;13.85;56.26;98784.06;1763923;79;25676;-73
2021/05/14 01:15:13;;;;;;;4.70;3.70;;;;;;;13.79;56.57;98774.98;1763635;79;32724;-73
2021/05/14 01:17:39;;;;;;;6.30;3.70;;;;;;;13.79;56.57;98774.98;1762016;79;25542;-73
2021/05/14 01:20:06;;;;;;;8.50;3.80;;;;;;;13.77;56.56;98776.51;1762154;80;34675;-73
2021/05/14 01:22:32;;;;;;;8.95;4.17;;;;;;;13.76;56.51;98776.23;1762707;79;25639;-73
2021/05/14 01:24:57;;;;;;;7.85;4.10;;;;;;;13.77;56.66;98775.98;1763506;80;25684;-73
2021/05/14 01:27:23;;;;;;;9.18;3.83;;;;;;;13.78;56.92;98772.88;1754947;80;32856;-73
2021/05/14 01:29:50;;;;;;;10.20;3.98;;;;;;;13.75;56.96;98770.19;1768413;79;26895;-73
2021/05/14 01:32:16;;;;;;;8.60;4.17;;;;;;;13.75;56.95;98776.75;1764405;79;25615;-72
2021/05/14 01:34:43;;;;;;;7.50;4.20;;;;;;;13.71;57.00;98767.70;1764148;80;25645;-73
2021/05/14 01:37:09;;;;;;;7.28;4.03;;;;;;;13.70;57.18;98770.57;1763193;79;25484;-74
2021/05/14 01:39:35;;;;;;;7.83;4.83;;;;;;;13.69;57.36;98772.89;1764039;79;25582;-73
2021/05/14 01:42:03;;;;;;;6.37;4.17;;;;;;;13.66;57.39;98776.77;1758506;80;31222;-73
2021/05/14 01:44:29;;;;;;;9.85;4.55;;;;;;;13.60;57.37;98778.19;1763021;79;25491;-73
2021/05/14 01:46:56;;;;;;;5.97;4.00;;;;;;;13.59;57.43;98773.45;1763978;79;25569;-73
2021/05/14 01:49:22;;;;;;;9.25;4.55;;;;;;;13.60;57.49;98775.56;1763354;79;25601;-73
2021/05/14 01:51:48;;;;;;;6.95;4.20;;;;;;;13.63;57.72;98769.86;1762879;79;32863;-73
2021/05/14 01:54:15;;;;;;;8.35;4.22;;;;;;;13.62;57.74;98776.14;1763108;80;25145;-73
2021/05/14 01:56:50;;;;;;;6.95;4.30;;;;;;;13.58;57.82;98770.52;1763753;79;26146;-73
2021/05/14 01:59:16;;;;;;;7.85;4.55;;;;;;;13.53;57.91;98771.20;1763470;80;26417;-75
2021/05/14 02:01:43;;;;;;;8.80;4.50;;;;;;;13.52;57.88;98775.36;1763344;79;25711;-74
2021/05/14 02:04:10;;;;;;;6.95;4.70;;;;;;;13.50;57.92;98776.91;1763570;80;25589;-74
2021/05/14 02:06:36;;;;;;;8.75;4.55;;;;;;;13.52;57.85;98776.16;1764145;79;25753;-74
2021/05/14 02:09:04;;;;;;;8.08;4.53;;;;;;;13.54;58.21;98776.73;1760972;79;25509;-74
2021/05/14 02:11:32;;;;;;;6.10;4.00;;;;;;;13.52;58.37;98780.61;1763169;79;26079;-74
2021/05/14 02:13:58;;;;;;;8.18;4.37;;;;;;;13.50;58.36;98778.70;1763630;80;25955;-74
2021/05/14 02:16:24;;;;;;;8.88;4.53;;;;;;;13.48;58.48;98776.84;1762890;79;34096;-74
2021/05/14 02:18:50;;;;;;;5.60;4.35;;;;;;;13.45;58.40;98782.51;1763378;80;25558;-74
2021/05/14 02:21:15;;;;;;;13.08;4.47;;;;;;;13.42;58.54;98778.53;1762920;79;34658;-74
2021/05/14 02:23:41;;;;;;;7.45;4.75;;;;;;;13.20;58.61;98774.22;1763955;80;32027;-74
2021/05/14 02:26:07;;;;;;;9.25;4.45;;;;;;;12.94;59.03;98777.18;1763765;79;25801;-74
2021/05/14 02:28:34;;;;;;;8.60;4.78;;;;;;;12.89;59.34;98778.62;1763702;80;32850;-74
2021/05/14 02:31:01;;;;;;;9.70;4.50;;;;;;;12.92;59.57;98777.38;1763999;80;25995;-74
2021/05/14 02:33:27;;;;;;;8.33;4.90;;;;;;;12.95;59.74;98777.45;1763551;79;25617;-74
2021/05/14 02:35:53;;;;;;;9.68;4.85;;;;;;;13.00;59.94;98776.30;1763536;80;25585;-74
2021/05/14 02:38:19;;;;;;;12.58;5.60;;;;;;;12.98;60.00;98776.50;1762415;79;25725;-74
2021/05/14 02:40:45;;;;;;;10.28;5.90;;;;;;;12.86;60.08;98778.27;1762824;80;32857;-74
2021/05/14 02:43:11;;;;;;;8.65;5.30;;;;;;;12.87;60.51;98775.41;1763267;80;31275;-74
2021/05/14 02:45:38;;;;;;;11.03;5.70;;;;;;;12.95;60.59;98774.84;1734069;80;25696;-74
2021/05/14 02:48:06;;;;;;;9.23;5.17;;;;;;;13.01;60.73;98772.64;1754915;80;25638;-74
2021/05/14 02:50:32;;;;;;;11.08;5.58;;;;;;;13.01;60.64;98773.47;1751913;80;25590;-74
2021/05/14 02:52:58;;;;;;;9.65;5.92;;;;;;;13.04;60.85;98774.33;1730386;81;25667;-74
2021/05/14 02:55:24;;;;;;;9.38;5.85;;;;;;;13.06;60.79;98781.45;1731710;81;31218;-74
2021/05/14 02:57:52;;;;;;;10.13;5.05;;;;;;;13.04;60.81;98774.33;1747592;81;34704;-74
2021/05/14 03:00:20;;;;;;;7.00;5.25;;;;;;;13.06;61.00;98775.41;1756705;80;25481;-73
2021/05/14 03:02:46;;;;;;;10.30;5.05;;;;;;;13.07;61.10;98780.45;1757463;80;26329;-73
2021/05/14 03:05:13;;;;;;;8.28;5.22;;;;;;;13.10;61.05;98780.00;1757552;80;32900;-74
2021/05/14 03:07:39;;;;;;;8.93;5.50;;;;;;;13.14;61.08;98780.35;1758287;80;25606;-74
2021/05/14 03:10:07;;;;;;;9.35;5.47;;;;;;;13.12;60.97;98783.70;1758361;80;34613;-73
2021/05/14 03:12:33;;;;;;;11.38;5.42;;;;;;;13.05;61.09;98783.00;1757713;80;25552;-72
2021/05/14 03:14:58;;;;;;;9.00;5.45;;;;;;;13.00;61.15;98783.64;1757065;80;25654;-72
2021/05/14 03:17:24;;;;;;;8.60;5.58;;;;;;;13.05;61.40;98785.62;1731257;81;32862;-73
2021/05/14 03:19:50;;;;;;;7.85;5.78;;;;;;;13.09;61.48;98789.39;1763813;79;31136;-73
2021/05/14 03:22:16;;;;;;;8.58;5.22;;;;;;;13.11;61.60;98793.40;1761923;79;34719;-73
2021/05/14 03:24:42;;;;;;;10.13;5.78;;;;;;;13.09;61.69;98794.15;1762579;79;32362;-73
2021/05/14 03:27:07;;;;;;;12.80;5.75;;;;;;;13.03;61.81;98788.97;1764254;79;26342;-73
2021/05/14 03:29:33;;;;;;;9.75;5.75;;;;;;;13.01;62.00;98791.00;1763076;80;32758;-74
2021/05/14 03:31:59;;;;;;;13.45;5.58;;;;;;;12.98;62.12;98794.06;1763402;79;31166;-73
2021/05/14 03:34:25;;;;;;;11.40;5.37;;;;;;;12.97;62.25;98797.20;1763549;80;35186;-73
2021/05/14 03:36:51;;;;;;;10.05;5.33;;;;;;;12.97;62.37;98803.76;1761840;79;32796;-74
2021/05/14 03:39:21;;;;;;;10.20;5.75;;;;;;;12.99;62.37;98799.10;1762850;80;25637;-74
2021/05/14 03:41:53;;;;;;;8.88;5.53;;;;;;;13.07;62.54;98800.63;1763038;80;25640;-73
2021/05/14 03:44:15;;;;;;;7.62;5.72;;;;;;;13.17;62.55;98804.83;1762371;80;25534;-73
2021/05/14 03:46:41;;;;;;;10.23;5.67;;;;;;;13.25;62.61;98805.05;1763344;79;25530;-73
2021/05/14 03:49:07;;;;;;;16.60;6.28;;;;;;;13.28;62.61;98803.32;1763288;79;32935;-73
2021/05/14 03:51:38;;;;;;;9.45;6.40;;;;;;;13.30;62.67;98807.84;1732569;80;25687;-73
2021/05/14 03:54:05;;;;;;;10.35;5.65;;;;;;;13.30;62.75;98806.02;1763976;79;25582;-73
2021/05/14 03:56:31;;;;;;;8.60;5.80;;;;;;;13.27;62.64;98808.29;1763301;80;25697;-73
2021/05/14 03:58:59;;;;;;;12.03;6.37;;;;;;;13.25;62.78;98805.84;1763478;80;25540;-73
2021/05/14 04:01:28;;;;;;;8.98;5.47;;;;;;;13.30;62.97;98794.72;1763233;79;25532;-73
2021/05/14 04:03:54;;;;;;;12.43;5.72;;;;;;;13.38;62.95;98802.30;1763169;79;25627;-73
2021/05/14 04:06:20;;;;;;;8.90;5.67;;;;;;;13.42;63.02;98811.83;1762866;80;25582;-73
2021/05/14 04:08:46;;;;;;;13.70;6.25;;;;;;;13.45;63.11;98804.81;1763012;79;31248;-73
2021/05/14 04:16:24;;;;;;;11.68;5.72;;;;;;;13.77;63.14;98813.27;1763294;79;25559;-73
2021/05/14 04:18:50;;;;;;;17.42;6.25;;;;;;;13.88;63.15;98818.27;1763415;79;33263;-73
2021/05/14 04:21:16;;;;;;;14.43;5.90;;;;;;;13.96;63.05;98811.38;1763976;79;31234;-73
2021/05/14 04:23:42;;;;;;;11.18;6.28;;;;;;;14.04;63.01;98806.32;1763567;79;35149;-73
2021/05/14 04:26:07;;;;;;;11.75;6.45;;;;;;;14.13;62.92;98811.52;1763412;80;32699;-73
2021/05/14 04:28:33;;;;;;;13.88;6.08;;;;;;;14.18;62.93;98808.50;1763726;79;26171;-73
2021/05/14 04:30:59;;;;;;;11.70;6.55;;;;;;;14.24;63.06;98808.14;1754881;80;33019;-73
2021/05/14 04:33:25;;;;;;;9.53;6.20;;;;;;;14.24;62.96;98814.70;1763290;79;31078;-73
2021/05/14 04:35:51;;;;;;;9.33;6.10;;;;;;;14.27;62.91;98817.37;1763656;79;34719;-74
2021/05/14 04:38:17;;;;;;;15.58;7.00;;;;;;;14.29;62.93;98820.05;1763450;79;25589;-73
2021/05/14 04:40:42;;;;;;;10.68;7.50;;;;;;;14.32;62.96;98824.06;1764404;80;25899;-73
2021/05/14 04:43:08;;;;;;;9.75;6.95;;;;;;;14.30;62.79;98830.08;1762113;80;33272;-73
2021/05/14 04:45:36;;;;;;;12.23;7.80;;;;;;;14.21;62.84;98830.41;1763961;80;31647;-73
2021/05/14 04:48:02;;;;;;;12.93;7.62;;;;;;;14.19;63.10;98828.52;1762960;79;25526;-73
2021/05/14 04:50:28;;;;;;;11.88;7.60;;;;;;;14.16;63.24;98825.03;1764287;79;25599;-74
2021/05/14 04:53:11;;;;;;;17.80;9.23;;;;;;;14.21;63.51;98829.09;1755350;80;25976;-74
2021/05/14 04:55:37;;;;;;;16.60;8.80;;;;;;;14.26;63.63;98834.17;1763350;80;26363;-73
2021/05/14 04:58:03;;;;;;;15.08;8.18;;;;;;;14.30;63.58;98825.62;1762740;79;32458;-73
2021/05/14 05:00:29;;;;;;;17.98;7.53;;;;;;;14.32;63.64;98824.06;1763495;79;25581;-73
2021/05/14 05:02:56;;;;;;;19.10;8.00;;;;;;;14.36;63.75;98825.22;1753923;80;25514;-73
2021/05/14 05:05:23;;;;;;;14.90;7.60;;;;;;;14.37;63.73;98824.19;1755442;80;25661;-73
2021/05/14 05:07:49;;;;;;;11.57;7.37;;;;;;;14.40;63.62;98821.92;1755396;80;25557;-73
2021/05/14 05:10:16;;;;;;;12.37;7.50;;;;;;;14.44;63.69;98822.26;1730821;81;31591;-73
2021/05/14 05:12:42;;;;;;;9.88;7.37;;;;;;;14.48;63.77;98829.16;1764136;79;25598;-73
2021/05/14 05:15:10;;;;;;;10.70;7.10;;;;;;;14.44;63.60;98835.40;1734757;80;25551;-73
2021/05/14 05:17:37;;;;;;;11.88;7.28;;;;;;;14.42;63.67;98828.25;1764353;79;25642;-73
2021/05/14 05:20:06;;;;;;;12.53;7.75;;;;;;;14.45;63.78;98827.79;1762147;79;25606;-73
2021/05/14 05:22:32;;;;;;;11.68;7.33;;;;;;;14.53;63.94;98828.00;1761586;79;25663;-74
2021/05/14 05:24:58;;;;;;;12.65;6.85;;;;;;;14.48;63.82;98806.81;1763513;80;34735;-73
2021/05/14 05:27:23;;;;;;;12.28;7.75;;;;;;;14.48;63.82;98806.81;1763474;79;32232;-73
2021/05/14 05:29:49;;;;;;;14.05;6.85;;;;;;;14.67;63.87;98825.42;1763791;80;25691;-73
2021/05/14 05:32:15;;;;;;;15.48;7.53;;;;;;;14.73;63.92;98832.41;1763110;79;33107;-73
2021/05/14 05:34:40;;;;;;;10.58;8.00;;;;;;;14.78;64.41;98833.81;1764025;80;31613;-73
2021/05/14 05:37:06;;;;;;;15.08;11.78;;;;;;;14.74;64.18;98839.27;1763190;79;34737;-73
2021/05/14 05:39:32;;;;;;;14.10;8.73;;;;;;;14.76;64.16;98839.84;1763498;79;32217;-73
2021/05/14 05:41:58;;;;;;;16.62;9.28;;;;;;;14.78;64.25;98836.44;1763287;80;25628;-73
2021/05/14 05:44:24;;;;;;;14.45;9.98;;;;;;;14.75;64.25;98842.17;1762752;79;33153;-74
2021/05/14 05:46:50;;;;;;;15.60;9.28;;;;;;;14.71;64.30;98838.41;1762919;79;31288;-73
2021/05/14 05:49:17;;;;;;;15.03;9.75;;;;;;;14.77;64.53;98839.32;1762780;80;25559;-73
2021/05/14 05:51:42;;;;;;;15.03;9.85;;;;;;;14.90;64.54;98835.14;1762511;79;25568;-73
2021/05/14 05:54:09;;;;;;;19.42;10.23;;;;;;;15.03;64.47;98841.96;1763352;80;25627;-73
2021/05/14 05:56:34;;;;;;;23.10;9.88;;;;;;;15.16;64.40;98836.97;1758393;80;26523;-73
2021/05/14 05:59:01;;;;;;;21.48;10.58;;;;;;;15.28;64.30;98835.92;1756082;80;31263;-73
2021/05/14 06:01:27;;;;;;;15.32;9.25;;;;;;;15.46;64.37;98837.56;1757199;80;25234;-73
2021/05/14 06:03:54;;;;;;;15.80;9.25;;;;;;;15.64;64.11;98839.75;1758114;80;33001;-73
2021/05/14 06:06:20;;;;;;;19.62;9.70;;;;;;;15.81;63.90;98834.02;1757057;80;25560;-74
2021/05/14 06:08:46;;;;;;;13.68;7.97;;;;;;;15.94;63.87;98832.94;1735797;80;33049;-73
2021/05/14 06:11:12;;;;;;;16.62;9.18;;;;;;;16.14;64.02;98833.78;1755921;80;31237;-73
2021/05/14 06:13:38;;;;;;;19.35;9.03;;;;;;;16.33;63.74;98841.73;1756479;80;34811;-74
2021/05/14 06:16:05;;;;;;;16.37;8.28;;;;;;;16.47;63.29;98832.19;1758305;80;32708;-73
2021/05/14 06:18:38;;;;;;;15.65;7.95;;;;;;;16.50;62.97;98833.02;1758235;80;25777;-73
2021/05/14 06:21:07;;;;;;;21.80;8.80;;;;;;;16.48;62.89;98831.96;1758206;80;25662;-73
2021/05/14 06:23:33;;;;;;;27.55;9.28;;;;;;;16.60;63.35;98837.13;1756788;80;25526;-74
2021/05/14 06:25:59;;;;;;;25.92;9.55;;;;;;;16.80;63.80;98845.88;1757241;80;25573;-73
2021/05/14 06:28:25;;;;;;;17.55;9.05;;;;;;;16.91;63.27;98844.97;1758226;80;32934;-71
2021/05/14 06:30:51;;;;;;;18.62;8.38;;;;;;;16.95;62.41;98845.30;1752554;80;26857;-73
2021/05/14 06:33:18;;;;;;;19.07;9.23;;;;;;;16.92;63.06;98848.44;1757003;80;25509;-73
2021/05/14 06:35:46;;;;;;;21.87;8.65;;;;;;;17.02;62.60;98853.33;1759318;80;25501;-74
2021/05/14 06:38:12;;;;;;;21.23;9.38;;;;;;;17.05;62.01;98853.33;1759438;80;25578;-74
2021/05/14 06:40:37;;;;;;;18.00;9.05;;;;;;;17.00;62.16;98851.45;1758741;80;25564;-73
2021/05/14 06:43:03;;;;;;;20.25;7.95;;;;;;;17.00;61.85;98850.66;1731758;80;25652;-75
2021/05/14 06:45:29;;;;;;;17.35;9.20;;;;;;;17.06;61.82;98853.62;1756375;80;33161;-77
2021/05/14 06:48:13;;;;;;;22.98;8.90;;;;;;;17.17;61.46;98850.07;1758189;80;31261;-77
2021/05/14 06:50:37;;;;;;;18.32;8.25;;;;;;;17.17;61.46;98850.07;1757105;80;25464;-76
2021/05/14 06:53:04;;;;;;;18.30;8.33;;;;;;;17.23;61.17;98850.93;1757757;80;25619;-77
2021/05/14 06:55:31;;;;;;;16.48;8.68;;;;;;;17.16;60.58;98845.02;1756569;80;26399;-79
2021/05/14 06:57:57;;;;;;;16.57;9.00;;;;;;;17.15;60.74;98851.36;1759306;80;25636;-74
2021/05/14 07:00:23;;;;;;;18.07;8.95;;;;;;;17.19;60.88;98857.23;1754355;80;25598;-74
2021/05/14 07:02:49;;;;;;;20.70;9.30;;;;;;;17.17;60.56;98856.67;1757241;80;25393;-74
2021/05/14 07:05:17;;;;;;;13.68;9.10;;;;;;;17.17;60.81;98858.52;1757720;80;32414;-76
2021/05/14 07:07:44;;;;;;;14.13;9.30;;;;;;;17.21;60.96;98862.25;1758187;80;27086;-75
2021/05/14 07:10:11;;;;;;;16.77;9.05;;;;;;;17.17;60.79;98861.95;1758295;80;26440;-75
2021/05/14 07:12:39;;;;;;;14.20;9.78;;;;;;;17.14;60.91;98869.05;1756213;80;25618;-74
2021/05/14 07:15:09;;;;;;;19.57;9.80;;;;;;;17.08;61.12;98868.71;1730655;80;25586;-73
2021/05/14 07:17:35;;;;;;;17.65;9.88;;;;;;;17.00;61.12;98867.81;1757958;80;26111;-73
2021/05/14 07:20:02;;;;;;;15.95;9.85;;;;;;;17.07;61.52;98874.48;1757671;80;25556;-73
2021/05/14 07:22:29;;;;;;;18.80;10.82;;;;;;;17.16;61.64;98876.21;1757325;80;25615;-73
2021/05/14 07:24:55;;;;;;;21.95;9.88;;;;;;;17.18;61.34;98878.06;1756164;80;31188;-74
2021/05/14 07:27:21;;;;;;;21.45;10.13;;;;;;;17.23;61.24;98880.77;1754612;80;35213;-74
2021/05/14 07:29:46;;;;;;;13.08;9.25;;;;;;;17.34;61.21;98882.23;1756427;80;32428;-73
2021/05/14 07:32:12;;;;;;;13.85;9.33;;;;;;;17.44;61.18;98875.22;1766190;79;26172;-74
2021/05/14 07:34:39;;;;;;;18.77;9.73;;;;;;;17.53;61.08;98877.70;1756948;80;33014;-72
2021/05/14 07:37:06;;;;;;;16.15;9.93;;;;;;;17.55;60.68;98879.31;1760732;80;25643;-73
2021/05/14 07:39:35;;;;;;;18.55;9.90;;;;;;;17.63;60.88;98875.70;1766003;79;25515;-72
2021/05/14 07:42:01;;;;;;;14.60;9.47;;;;;;;17.77;60.61;98883.25;1732020;81;25576;-74
2021/05/14 07:44:27;;;;;;;15.25;10.55;;;;;;;17.80;60.58;98874.32;1768334;79;26173;-73
2021/05/14 07:46:53;;;;;;;16.17;9.65;;;;;;;17.87;60.55;98888.65;1763069;79;25248;-74
2021/05/14 07:49:19;;;;;;;16.23;9.90;;;;;;;17.94;60.54;98884.77;1762501;79;31101;-73
2021/05/14 07:51:45;;;;;;;17.45;10.35;;;;;;;17.97;60.22;98885.59;1765016;79;34740;-74
2021/05/14 07:54:11;;;;;;;16.25;10.03;;;;;;;18.00;60.02;98889.58;1762663;79;33012;-74
2021/05/14 07:56:38;;;;;;;16.65;10.78;;;;;;;17.99;59.85;98892.48;1764288;79;25914;-74
2021/05/14 07:59:06;;;;;;;16.52;9.30;;;;;;;17.94;59.65;98892.70;1764065;79;25572;-74
2021/05/14 08:01:32;;;;;;;14.73;9.15;;;;;;;17.95;60.07;98895.63;1764014;79;25135;-73
2021/05/14 08:03:58;;;;;;;16.60;9.55;;;;;;;18.06;59.99;98897.03;1732196;80;25599;-74
2021/05/14 08:06:24;;;;;;;22.48;10.60;;;;;;;18.11;59.77;98901.05;1762992;79;25127;-74
2021/05/14 08:08:51;;;;;;;16.85;9.60;;;;;;;18.12;59.38;98903.45;1762460;79;26007;-75
2021/05/14 08:11:17;;;;;;;19.17;9.78;;;;;;;18.10;59.55;98905.55;1762872;79;25584;-75
2021/05/14 08:13:42;;;;;;;18.32;10.20;;;;;;;18.15;59.39;98903.48;1763573;79;31623;-74
2021/05/14 08:16:08;;;;;;;19.12;9.85;;;;;;;18.16;59.06;98909.83;1733266;80;35065;-73
2021/05/14 08:18:34;;;;;;;26.93;11.08;;;;;;;18.15;58.98;98904.81;1762873;79;32378;-75
2021/05/14 08:21:01;;;;;;;21.50;10.80;;;;;;;18.25;59.34;98916.81;1763102;79;25648;-73
2021/05/14 08:23:27;;;;;;;13.78;10.55;;;;;;;18.28;59.17;98913.66;1763519;79;25796;-73
2021/05/14 08:25:53;;;;;;;13.70;8.85;;;;;;;18.30;58.92;98907.57;1763734;79;25566;-72
2021/05/14 08:28:19;;;;;;;17.10;9.90;;;;;;;18.38;58.90;98909.76;1763000;79;34708;-72
2021/05/14 08:30:47;;;;;;;14.68;9.30;;;;;;;18.48;58.45;98909.59;1763402;79;25655;-71
2021/05/14 08:33:13;;;;;;;15.55;10.48;;;;;;;18.52;58.39;98906.70;1763132;79;25618;-74
2021/05/14 08:35:40;;;;;;;17.92;10.13;;;;;;;18.57;58.32;98909.38;1763645;79;25578;-72
2021/05/14 08:38:08;;;;;;;18.25;10.15;;;;;;;18.61;58.09;98904.66;1763947;79;25544;-71
2021/05/14 08:40:37;;;;;;;15.93;9.58;;;;;;;18.61;57.83;98912.61;1763874;79;25516;-72
2021/05/14 08:43:03;;;;;;;18.42;9.45;;;;;;;18.53;57.33;98909.63;1712757;79;25655;-73
2021/05/14 08:45:30;;;;;;;15.55;9.48;;;;;;;18.59;57.92;98914.70;1764382;79;25544;-71
2021/05/14 08:47:57;;;;;;;18.65;9.08;;;;;;;18.73;57.57;98920.89;1761882;79;25595;-70
2021/05/14 08:50:27;;;;;;;18.77;9.65;;;;;;;18.74;57.48;98923.80;1762917;79;25625;-74
2021/05/14 08:52:53;;;;;;;27.15;10.30;;;;;;;18.72;57.31;98920.63;1763082;79;26203;-73
2021/05/14 08:55:25;;;;;;;17.75;9.45;;;;;;;18.70;57.20;98920.08;1762345;79;31933;-73
2021/05/14 08:57:52;;;;;;;24.30;10.18;;;;;;;18.75;57.58;98920.94;1763078;79;25752;-72
2021/05/14 09:00:20;;;;;;;16.75;9.40;;;;;;;18.82;57.80;98923.35;1763564;79;25585;-71
2021/05/14 09:02:46;;;;;;;16.35;10.70;;;;;;;18.89;57.37;98922.62;1763125;79;25599;-75
2021/05/14 09:05:31;;;;;;;15.65;10.25;;;;;;;18.95;57.27;98923.45;1763646;79;25718;-75
2021/05/14 09:07:58;;;;;;;20.75;8.43;;;;;;;18.92;56.83;98927.40;1763674;79;25587;-76
2021/05/14 09:10:25;;;;;;;20.90;10.40;;;;;;;19.03;57.08;98925.09;1763568;79;25592;-77
2021/05/14 09:12:52;;;;;;;18.45;10.40;;;;;;;19.13;56.86;98927.01;1762158;79;25192;-75
2021/05/14 09:15:31;;;;;;;14.50;9.73;;;;;;;19.22;56.48;98924.13;1763966;79;25586;-75
2021/05/14 09:18:20;;;;;;;11.57;8.65;;;;;;;19.28;56.27;98924.42;1764287;79;25587;-75
2021/05/14 09:20:57;;;;;;;19.07;10.25;;;;;;;19.33;55.61;98928.96;1763822;79;25529;-74
2021/05/14 09:23:37;;;;;;;12.70;8.80;;;;;;;19.41;55.66;98921.05;1731733;79;25762;-75
2021/05/14 09:26:15;;;;;;;13.72;9.30;;;;;;;19.50;55.24;98923.47;1763026;79;25597;-76
2021/05/14 09:28:50;;;;;;;17.32;9.43;;;;;;;19.55;54.92;98924.02;1762142;79;25192;-75
2021/05/14 09:31:23;;;;;;;14.03;9.73;;;;;;;19.55;54.94;98923.48;1766119;79;25804;-75
2021/05/14 09:33:59;;;;;;;18.70;10.05;;;;;;;19.66;54.91;98926.47;1729864;81;25641;-71
2021/05/14 09:36:31;;;;;;;13.58;6.67;;;;;;;19.72;54.93;98926.78;1762750;79;25738;-71
2021/05/14 09:39:00;;;;;;;15.75;7.53;;;;;;;19.91;54.11;98936.36;1733472;81;25156;-73
2021/05/14 09:41:39;;;;;;;8.17;6.00;;;;;;;19.99;52.84;98930.28;1730212;81;25954;-73
2021/05/14 09:44:14;;;;;;;11.33;6.73;;;;;;;20.11;53.11;98924.22;1763217;79;25519;-72
2021/05/14 09:46:57;;;;;;;13.68;6.25;;;;;;;20.22;52.38;98930.34;1762475;79;25656;-75
2021/05/14 09:49:25;;;;;;;12.98;6.15;;;;;;;20.32;51.78;98934.31;1763730;79;26268;-74
2021/05/14 09:51:57;;;;;;;13.10;6.42;;;;;;;20.34;51.43;98933.52;1763107;80;25343;-74
2021/05/14 09:54:42;;;;;;;12.33;6.37;;;;;;;20.38;51.21;98931.95;1732608;79;25561;-76
2021/05/14 09:59:59;;;;;;;11.33;6.65;;;;;;;20.47;50.12;98930.89;1758222;80;25657;-77
2021/05/14 10:02:34;;;;;;;11.25;6.00;;;;;;;20.45;49.46;98929.81;1758179;80;25499;-74
2021/05/14 10:05:06;;;;;;;10.65;5.42;;;;;;;20.50;49.66;98923.18;1757230;80;25670;-72
2021/05/14 10:07:35;;;;;;;11.45;5.45;;;;;;;20.63;48.59;98928.53;1758711;80;25623;-73
2021/05/14 10:10:08;;;;;;;11.57;6.37;;;;;;;20.69;48.62;98924.80;1757488;80;25498;-74
2021/05/14 10:12:38;;;;;;;10.23;5.20;;;;;;;20.77;48.34;98926.13;1759280;80;25207;-75
2021/05/14 10:15:08;;;;;;;9.78;5.03;;;;;;;20.82;48.63;98921.60;1759281;80;25669;-75
2021/05/14 10:17:35;;;;;;;12.93;6.10;;;;;;;20.86;46.47;98919.20;1757392;80;33223;-75
2021/05/14 10:20:05;;;;;;;14.18;6.70;;;;;;;20.88;47.85;98925.59;1731031;80;25739;-74
2021/05/14 10:22:31;;;;;;;10.40;5.57;;;;;;;20.93;47.86;98917.61;1757476;80;25195;-75
2021/05/14 10:24:58;;;;;;;10.78;6.10;;;;;;;21.09;47.61;98921.01;1757695;80;25214;-76
2021/05/14 10:27:27;;;;;;;7.47;5.37;;;;;;;21.16;46.79;98923.66;1758857;80;26260;-76
2021/05/14 10:29:58;;;;;;;8.95;5.65;;;;;;;21.14;47.44;98913.03;1759702;80;25615;-73
2021/05/14 10:32:48;;;;;;;8.70;4.28;;;;;;;21.19;46.81;98917.80;1732703;81;26417;-73
2021/05/14 10:35:27;;;;;;;9.70;4.65;;;;;;;21.29;46.82;98914.32;1768868;79;25520;-74
2021/05/14 10:38:06;;;;;;;10.32;5.05;;;;;;;21.38;45.81;98917.24;1764223;79;25560;-75
2021/05/14 10:40:38;;;;;;;11.45;4.78;;;;;;;21.43;45.07;98919.34;1764866;79;25606;-74
2021/05/14 10:43:19;;;;;;;7.60;4.58;;;;;;;21.37;45.18;98919.11;1763616;79;25561;-74
2021/05/14 10:45:48;;;;;;;10.43;4.90;;;;;;;21.37;45.23;98928.41;1766550;79;25680;-75
2021/05/14 10:48:21;;;;;;;12.37;4.75;;;;;;;21.35;44.66;98915.09;1764798;79;25605;-72
2021/05/14 10:50:53;;;;;;;12.30;3.87;;;;;;;21.26;44.13;98917.52;1764337;79;25571;-73
2021/05/14 10:53:31;;;;;;;7.28;3.85;;;;;;;21.17;44.15;98918.62;1763501;79;25530;-73
2021/05/14 10:55:58;;;;;;;9.98;4.35;;;;;;;21.22;43.72;98916.45;1764640;79;25599;-74
2021/05/14 10:58:46;;;;;;;5.28;3.08;;;;;;;21.20;43.88;98914.09;1763682;79;25492;-75
2021/05/14 11:01:43;;;;;;;8.83;3.75;;;;;;;21.22;43.88;98923.89;1765012;79;25614;-74
2021/05/14 11:04:18;;;;;;;8.30;5.25;;;;;;;21.25;44.20;98919.39;1734273;81;25656;-73
2021/05/14 11:06:50;;;;;;;9.23;4.72;;;;;;;21.31;44.00;98918.84;1753441;80;26496;-74
2021/05/14 11:09:19;;;;;;;15.65;4.15;;;;;;;21.36;44.39;98918.01;1733874;81;25597;-74
2021/05/14 11:12:08;;;;;;;11.40;4.15;;;;;;;21.55;45.07;98924.88;1737422;80;25665;-75
2021/05/14 11:14:44;;;;;;;11.00;4.28;;;;;;;21.78;44.94;98910.16;1764570;79;25581;-73
2021/05/14 11:17:14;;;;;;;8.63;3.70;;;;;;;21.86;42.83;98917.02;1764089;79;25533;-73
2021/05/14 11:19:51;;;;;;;10.32;4.17;;;;;;;21.79;42.52;98917.84;1764545;79;25733;-75
2021/05/14 11:22:25;;;;;;;8.03;4.45;;;;;;;21.74;43.75;98917.88;1764588;79;25529;-74
2021/05/14 11:25:13;;;;;;;15.15;4.53;;;;;;;21.74;43.65;98917.88;1763981;79;25581;-74
2021/05/14 11:27:38;;;;;;;7.75;4.37;;;;;;;21.82;43.97;98922.61;1763820;79;25601;-74
2021/05/14 11:30:09;;;;;;;11.10;5.28;;;;;;;21.86;43.00;98922.88;1763103;79;25160;-74
2021/05/14 11:32:44;;;;;;;9.23;5.10;;;;;;;21.86;43.50;98926.33;1734691;79;25614;-74
2021/05/14 11:35:31;;;;;;;10.38;4.20;;;;;;;21.89;43.29;98929.77;1731732;81;25752;-74
2021/05/14 11:38:01;;;;;;;14.07;3.85;;;;;;;21.94;42.88;98937.73;1730987;80;25248;-75
2021/05/14 11:40:38;;;;;;;11.93;5.40;;;;;;;22.00;43.12;98931.05;1720420;82;25668;-75